Time;durP1;ratioP1;P1;durP2;ratioP2;P2;SDS_P1;SDS_P2;PMS_P1;PMS_P2;Temp;Humidity;BMP_temperature;BMP_pressure;BME280_temperature;BME280_humidity;BME280_pressure;Samples;Min_cycle;Max_cycle;Signal;HPM_P1;HPM_P2
2022/02/15 00:00:06;;;;;;;3.77;2.23;;;7.10;99.90;;;;;;5064024;28;20691;-45
2022/02/15 00:02:39;;;;;;;6.30;2.13;;;7.10;99.90;;;;;;5055106;28;20210;-48
2022/02/15 00:05:06;;;;;;;3.97;2.30;;;7.10;99.90;;;;;;5059043;28;20209;-46
2022/02/15 00:07:35;;;;;;;6.30;2.07;;;7.10;99.90;;;;;;5059331;28;20276;-46
2022/02/15 00:10:02;;;;;;;3.23;2.30;;;7.10;99.90;;;;;;5063193;28;20231;-44
2022/02/15 00:12:31;;;;;;;3.10;2.03;;;7.10;99.90;;;;;;5042011;28;20203;-49
2022/02/15 00:14:58;;;;;;;2.97;2.10;;;7.20;99.90;;;;;;5063429;28;20198;-46
2022/02/15 00:17:25;;;;;;;2.27;2.00;;;7.30;99.90;;;;;;5055196;28;20182;-50
2022/02/15 00:19:51;;;;;;;6.23;2.00;;;7.30;99.90;;;;;;5070018;28;20222;-50
2022/02/15 00:22:18;;;;;;;6.77;2.20;;;7.30;99.90;;;;;;5061787;28;20206;-50
2022/02/15 00:24:45;;;;;;;4.97;2.03;;;7.30;99.90;;;;;;5062328;28;20389;-46
2022/02/15 00:27:12;;;;;;;6.80;1.77;;;7.40;99.90;;;;;;5059288;28;20203;-48
2022/02/15 00:29:40;;;;;;;3.03;1.70;;;7.40;99.90;;;;;;5050956;28;20301;-47
2022/02/15 00:32:07;;;;;;;3.47;1.80;;;7.40;99.90;;;;;;5062459;28;20683;-48
2022/02/15 00:34:34;;;;;;;7.30;2.17;;;7.40;99.90;;;;;;5053339;28;20204;-45
2022/02/15 00:37:02;;;;;;;3.73;1.60;;;7.40;99.90;;;;;;5061967;28;20205;-51
2022/02/15 00:39:29;;;;;;;4.10;1.97;;;7.40;99.90;;;;;;5059552;28;20924;-46
2022/02/15 00:41:56;;;;;;;3.93;1.90;;;7.40;99.90;;;;;;5063543;28;20205;-47
2022/02/15 00:44:23;;;;;;;3.13;1.80;;;7.50;99.90;;;;;;5044783;28;20198;-51
2022/02/15 00:46:51;;;;;;;4.60;2.20;;;7.60;99.90;;;;;;5062114;28;20199;-50
2022/02/15 00:49:19;;;;;;;4.57;2.80;;;7.60;99.90;;;;;;5057624;28;20217;-50
2022/02/15 00:51:47;;;;;;;5.80;2.37;;;7.70;99.90;;;;;;5074612;28;20981;-47
2022/02/15 00:54:14;;;;;;;3.73;2.50;;;7.80;99.90;;;;;;5081793;28;20194;-49
2022/02/15 00:56:42;;;;;;;4.00;2.43;;;7.80;99.90;;;;;;5079864;28;20247;-45
2022/02/15 00:59:09;;;;;;;3.70;2.20;;;7.90;99.90;;;;;;5051801;28;20231;-45
2022/02/15 01:01:38;;;;;;;8.43;2.87;;;7.90;99.90;;;;;;5058369;28;20193;-47
2022/02/15 01:04:06;;;;;;;4.43;2.67;;;7.90;99.90;;;;;;5061962;28;20198;-45
2022/02/15 01:06:33;;;;;;;4.20;2.33;;;8.00;99.90;;;;;;5052725;28;20195;-47
2022/02/15 01:09:00;;;;;;;3.93;2.30;;;8.00;99.90;;;;;;5061857;28;20219;-45
2022/02/15 01:11:26;;;;;;;4.63;2.80;;;8.00;99.90;;;;;;5058478;28;20198;-51
2022/02/15 01:13:53;;;;;;;4.37;3.03;;;8.10;99.90;;;;;;5047143;28;20213;-47
2022/02/15 01:16:19;;;;;;;3.17;1.83;;;8.10;99.90;;;;;;5059075;28;20674;-49
2022/02/15 01:18:47;;;;;;;5.60;2.93;;;8.10;99.90;;;;;;5061327;28;20297;-47
2022/02/15 01:21:15;;;;;;;4.77;2.33;;;8.10;99.90;;;;;;5065596;28;20213;-46
2022/02/15 01:23:43;;;;;;;4.17;2.63;;;8.20;99.90;;;;;;5080244;28;20194;-48
2022/02/15 01:26:10;;;;;;;4.47;2.60;;;8.20;99.90;;;;;;5078479;28;20206;-47
2022/02/15 01:28:37;;;;;;;5.97;2.60;;;8.20;99.90;;;;;;5075867;28;20760;-46
2022/02/15 01:31:04;;;;;;;3.43;2.77;;;8.20;99.90;;;;;;5061347;28;20710;-45
2022/02/15 01:33:31;;;;;;;4.83;3.07;;;8.20;99.90;;;;;;5060197;28;20277;-45
2022/02/15 01:35:59;;;;;;;3.60;2.43;;;8.20;99.90;;;;;;5063434;28;20202;-49
2022/02/15 01:38:29;;;;;;;5.23;3.27;;;8.20;99.90;;;;;;5082645;28;20263;-49
2022/02/15 01:40:56;;;;;;;4.23;3.37;;;8.20;99.90;;;;;;5086273;28;20648;-47
2022/02/15 01:43:24;;;;;;;4.60;2.97;;;8.20;99.90;;;;;;5081904;28;20692;-48
2022/02/15 01:45:51;;;;;;;3.60;2.70;;;8.20;99.90;;;;;;5053420;28;20214;-48
2022/02/15 01:48:19;;;;;;;5.93;3.33;;;8.20;99.90;;;;;;5062810;28;20624;-49
2022/02/15 01:50:48;;;;;;;3.43;3.13;;;8.20;99.90;;;;;;5065419;28;20194;-47
2022/02/15 01:53:15;;;;;;;7.60;3.60;;;8.10;99.90;;;;;;5058974;28;20679;-49
2022/02/15 01:55:44;;;;;;;4.07;3.67;;;8.20;99.90;;;;;;5062959;28;20199;-47
2022/02/15 01:58:11;;;;;;;5.47;3.33;;;8.20;99.90;;;;;;5064785;28;20232;-47
2022/02/15 02:00:42;;;;;;;4.53;3.00;;;8.10;99.90;;;;;;5046734;28;22179;-47
2022/02/15 02:03:20;;;;;;;5.43;3.70;;;8.10;99.90;;;;;;5061885;28;20195;-49
2022/02/15 02:05:47;;;;;;;4.23;3.30;;;8.10;99.90;;;;;;5064017;28;20896;-49
2022/02/15 02:08:17;;;;;;;6.50;4.27;;;8.10;99.90;;;;;;5063265;28;20222;-50
2022/02/15 02:10:49;;;;;;;3.97;3.40;;;8.10;99.90;;;;;;5070975;28;20945;-46
2022/02/15 02:13:30;;;;;;;7.20;3.60;;;8.10;99.90;;;;;;5059393;28;20276;-45
2022/02/15 02:15:58;;;;;;;4.27;3.33;;;8.10;99.90;;;;;;5064435;28;20252;-47
2022/02/15 02:18:30;;;;;;;3.97;2.83;;;8.10;99.90;;;;;;5045854;28;20219;-46
2022/02/15 02:21:03;;;;;;;10.57;4.57;;;8.00;99.90;;;;;;5064688;28;20234;-50
2022/02/15 02:23:31;;;;;;;7.90;4.33;;;7.90;99.90;;;;;;5054644;28;20202;-46
2022/02/15 02:26:03;;;;;;;4.50;4.17;;;7.90;99.90;;;;;;5081909;28;20258;-47
2022/02/15 02:28:37;;;;;;;6.47;4.53;;;7.80;99.90;;;;;;5080474;28;20214;-47
2022/02/15 02:31:05;;;;;;;7.43;4.87;;;7.70;99.90;;;;;;5065847;28;20269;-47
2022/02/15 02:33:35;;;;;;;5.20;4.17;;;7.60;99.90;;;;;;5044631;28;20205;-46
2022/02/15 02:36:05;;;;;;;5.17;4.30;;;7.50;99.90;;;;;;5064173;28;20293;-47
2022/02/15 02:38:32;;;;;;;6.87;4.80;;;7.40;99.90;;;;;;5054155;28;20354;-45
2022/02/15 02:41:04;;;;;;;5.83;5.33;;;7.40;99.90;;;;;;5084066;28;20252;-45
2022/02/15 02:43:31;;;;;;;6.77;4.57;;;7.40;99.90;;;;;;5081247;28;20200;-46
2022/02/15 02:45:59;;;;;;;4.77;4.27;;;7.30;99.90;;;;;;5079842;28;21119;-48
2022/02/15 02:48:26;;;;;;;7.03;4.03;;;7.20;99.90;;;;;;5052090;28;20227;-49
2022/02/15 02:50:54;;;;;;;4.77;4.27;;;7.20;99.90;;;;;;5067150;28;20669;-48
2022/02/15 02:53:22;;;;;;;8.60;4.37;;;7.20;99.90;;;;;;5098050;28;20289;-46
2022/02/15 02:55:51;;;;;;;3.40;3.10;;;7.10;99.90;;;;;;5060896;28;20211;-47
2022/02/15 02:58:17;;;;;;;5.53;3.57;;;7.10;99.90;;;;;;5052145;28;20226;-45
2022/02/15 03:00:44;;;;;;;5.87;3.10;;;7.10;99.90;;;;;;5063623;28;20234;-48
2022/02/15 03:03:15;;;;;;;3.97;2.47;;;7.10;99.90;;;;;;5054249;28;20225;-49
2022/02/15 03:05:47;;;;;;;5.93;3.00;;;7.10;99.90;;;;;;5065801;28;20194;-49
2022/02/15 03:08:16;;;;;;;3.77;3.17;;;7.10;99.90;;;;;;5062407;28;20309;-50
2022/02/15 03:10:44;;;;;;;3.73;2.83;;;7.10;99.90;;;;;;5057218;28;20222;-45
2022/02/15 03:13:19;;;;;;;4.50;2.70;;;7.10;99.90;;;;;;5061868;28;20703;-47
2022/02/15 03:15:46;;;;;;;5.47;2.90;;;7.10;99.90;;;;;;5062222;28;20198;-45
2022/02/15 03:18:12;;;;;;;3.03;2.83;;;7.10;99.90;;;;;;5058378;28;21017;-51
2022/02/15 03:20:39;;;;;;;4.27;2.83;;;7.10;99.90;;;;;;5052210;28;20217;-47
2022/02/15 03:23:06;;;;;;;5.20;3.00;;;7.10;99.90;;;;;;5063856;28;20202;-45
2022/02/15 03:25:36;;;;;;;4.67;3.33;;;7.10;99.90;;;;;;5054162;28;22194;-50
2022/02/15 03:28:05;;;;;;;2.40;2.30;;;7.10;99.90;;;;;;5078744;28;20293;-45
2022/02/15 03:30:32;;;;;;;5.80;3.30;;;7.10;99.90;;;;;;5078836;28;20293;-45
2022/02/15 03:32:59;;;;;;;3.03;2.67;;;7.10;99.90;;;;;;5083005;28;20202;-48
2022/02/15 03:35:28;;;;;;;3.53;2.77;;;7.10;99.90;;;;;;5041008;28;20203;-47
2022/02/15 03:38:03;;;;;;;4.37;2.77;;;7.10;99.90;;;;;;5063264;28;20929;-45
2022/02/15 03:43:16;;;;;;;6.63;2.90;;;7.10;99.90;;;;;;5061519;28;20205;-47
2022/02/15 03:45:44;;;;;;;3.23;2.93;;;7.10;99.90;;;;;;5061466;28;20195;-47
2022/02/15 03:48:14;;;;;;;2.93;2.73;;;7.10;99.90;;;;;;5061877;28;20225;-45
2022/02/15 03:50:44;;;;;;;3.33;2.80;;;7.10;99.90;;;;;;5043471;28;20202;-48
2022/02/15 03:53:12;;;;;;;5.87;2.73;;;7.10;99.90;;;;;;5062422;28;20225;-49
2022/02/15 03:55:39;;;;;;;4.10;2.40;;;7.10;99.90;;;;;;5061387;28;20206;-49
2022/02/15 03:58:06;;;;;;;4.33;2.63;;;7.10;99.90;;;;;;5057837;28;20333;-45
2022/02/15 04:00:34;;;;;;;5.07;2.40;;;7.10;99.90;;;;;;5060355;28;20240;-49
2022/02/15 04:03:14;;;;;;;4.00;2.37;;;7.10;99.90;;;;;;5052735;28;20195;-50
2022/02/15 04:05:41;;;;;;;6.03;2.43;;;7.10;99.90;;;;;;5047442;28;20216;-50
2022/02/15 04:08:08;;;;;;;2.60;2.40;;;7.10;99.90;;;;;;5058950;28;20253;-46
2022/02/15 04:10:36;;;;;;;3.73;2.47;;;7.10;99.90;;;;;;5060449;28;20174;-49
2022/02/15 04:13:05;;;;;;;3.07;2.03;;;7.00;99.90;;;;;;5051780;28;20203;-46
2022/02/15 04:15:33;;;;;;;3.70;2.50;;;7.00;99.90;;;;;;5057230;28;20214;-48
2022/02/15 04:18:00;;;;;;;2.03;1.90;;;7.00;99.90;;;;;;5060276;28;20337;-50
2022/02/15 04:20:27;;;;;;;2.60;2.13;;;7.00;99.90;;;;;;5040919;28;20221;-49
2022/02/15 04:22:54;;;;;;;6.63;2.20;;;6.90;99.90;;;;;;5061496;28;20197;-46
2022/02/15 04:25:21;;;;;;;4.37;2.20;;;6.90;99.90;;;;;;5051193;28;20934;-49
2022/02/15 04:27:49;;;;;;;2.53;2.03;;;6.90;99.90;;;;;;5060909;28;20585;-47
2022/02/15 04:30:17;;;;;;;2.13;1.93;;;6.90;99.90;;;;;;5075566;28;20205;-47
2022/02/15 04:32:49;;;;;;;1.90;1.80;;;6.80;99.90;;;;;;5064781;28;20226;-46
2022/02/15 04:35:17;;;;;;;4.83;2.90;;;6.70;99.90;;;;;;5069165;28;20299;-47
2022/02/15 04:37:49;;;;;;;7.13;3.93;;;6.90;99.90;;;;;;5043632;28;20324;-46
2022/02/15 04:40:17;;;;;;;3.97;2.40;;;6.80;99.90;;;;;;5040648;28;20222;-49
2022/02/15 04:42:44;;;;;;;3.57;1.80;;;6.80;99.90;;;;;;5040973;28;20206;-45
2022/02/15 04:45:11;;;;;;;4.07;2.90;;;6.70;99.90;;;;;;5051402;28;20209;-49
2022/02/15 04:47:43;;;;;;;2.20;2.00;;;6.70;99.90;;;;;;5046237;28;20209;-45
2022/02/15 04:50:11;;;;;;;5.00;2.00;;;8.00;99.90;;;;;;5056551;28;20217;-46
2022/02/15 04:52:40;;;;;;;4.33;2.80;;;6.60;99.90;;;;;;5025427;28;20214;-45
2022/02/15 04:55:13;;;;;;;12.50;5.03;;;6.60;99.90;;;;;;5052732;28;20869;-44
2022/02/15 04:57:42;;;;;;;1.87;1.73;;;6.60;99.90;;;;;;5066005;28;20194;-44
2022/02/15 05:00:13;;;;;;;4.20;2.73;;;6.50;99.90;;;;;;5044919;28;20617;-49
2022/02/15 05:02:58;;;;;;;9.50;3.00;;;6.50;99.90;;;;;;5033520;28;20286;-47
2022/02/15 05:05:28;;;;;;;8.20;3.17;;;6.50;99.90;;;;;;5051343;28;20203;-45
2022/02/15 05:07:56;;;;;;;4.73;2.33;;;6.50;99.90;;;;;;5037308;28;20202;-48
2022/02/15 05:10:22;;;;;;;4.00;2.37;;;6.40;99.90;;;;;;5055210;28;20203;-46
2022/02/15 05:12:49;;;;;;;4.20;2.40;;;6.40;99.90;;;;;;5049443;28;20929;-50
2022/02/15 05:15:28;;;;;;;3.67;2.50;;;6.40;99.90;;;;;;5050285;28;20631;-46
2022/02/15 05:18:11;;;;;;;6.50;3.13;;;6.30;99.90;;;;;;5046246;28;20221;-51
2022/02/15 05:20:44;;;;;;;6.30;3.23;;;6.30;99.90;;;;;;5056033;28;20218;-50
2022/02/15 05:23:12;;;;;;;8.33;3.57;;;6.30;99.90;;;;;;5059216;28;20191;-49
2022/02/15 05:25:42;;;;;;;7.67;3.97;;;6.30;99.90;;;;;;5037992;28;20278;-53
2022/02/15 05:28:23;;;;;;;12.17;3.70;;;6.30;99.90;;;;;;5056026;28;20566;-48
2022/02/15 05:30:51;;;;;;;5.20;2.70;;;6.30;99.90;;;;;;5048981;28;20202;-51
2022/02/15 05:33:27;;;;;;;7.97;3.27;;;6.30;99.90;;;;;;5061605;28;20426;-47
2022/02/15 05:35:58;;;;;;;7.97;3.30;;;6.30;99.90;;;;;;5057160;28;20858;-49
2022/02/15 05:38:26;;;;;;;9.83;4.97;;;6.30;99.90;;;;;;5064573;28;20221;-46
2022/02/15 05:40:55;;;;;;;5.00;3.20;;;6.30;99.90;;;;;;5041219;28;20231;-48
2022/02/15 05:43:22;;;;;;;10.37;3.97;;;6.30;99.90;;;;;;5060986;28;20191;-46
2022/02/15 05:45:51;;;;;;;6.23;3.07;;;6.30;99.90;;;;;;5049701;28;20204;-49
2022/02/15 05:48:22;;;;;;;7.37;3.27;;;6.30;99.90;;;;;;5060695;28;20224;-50
2022/02/15 05:50:52;;;;;;;6.23;3.00;;;6.40;99.90;;;;;;5048721;28;20201;-45
2022/02/15 05:53:29;;;;;;;3.83;2.37;;;6.40;99.90;;;;;;5062171;28;20229;-44
2022/02/15 05:55:59;;;;;;;6.70;3.33;;;6.40;99.90;;;;;;5039539;28;20203;-51
2022/02/15 05:58:34;;;;;;;2.50;2.30;;;6.40;99.90;;;;;;5054375;28;20317;-45
2022/02/15 06:01:03;;;;;;;6.40;2.83;;;6.40;99.90;;;;;;5045624;28;20218;-50
2022/02/15 06:06:18;;;;;;;6.73;3.10;;;6.50;99.90;;;;;;5068533;28;20285;-46
2022/02/15 06:08:46;;;;;;;13.10;4.77;;;6.50;99.90;;;;;;5056713;28;20243;-47
2022/02/15 06:11:13;;;;;;;11.13;4.30;;;6.50;99.90;;;;;;5034579;28;20213;-47
2022/02/15 06:13:49;;;;;;;8.00;3.60;;;6.50;99.90;;;;;;5053845;28;20209;-46
2022/02/15 06:16:17;;;;;;;6.10;2.90;;;6.50;99.90;;;;;;5054233;28;20209;-48
2022/02/15 06:19:13;;;;;;;6.83;3.87;;;6.50;99.90;;;;;;5047221;28;20868;-47
2022/02/15 06:21:40;;;;;;;11.20;4.40;;;6.50;99.90;;;;;;5064594;28;20301;-51
2022/02/15 06:24:17;;;;;;;16.83;4.90;;;6.40;99.90;;;;;;5065163;28;20187;-46
2022/02/15 06:26:47;;;;;;;7.00;4.17;;;6.50;99.90;;;;;;5048923;28;20210;-51
2022/02/15 06:29:30;;;;;;;6.57;3.90;;;6.50;99.90;;;;;;5060326;28;20295;-52
2022/02/15 06:32:02;;;;;;;5.23;3.60;;;6.50;99.90;;;;;;5061878;28;20196;-47
2022/02/15 06:34:29;;;;;;;6.10;3.23;;;6.50;99.90;;;;;;5060053;28;20644;-49
2022/02/15 06:37:02;;;;;;;6.60;4.10;;;6.50;99.90;;;;;;5047905;28;20203;-47
2022/02/15 06:39:37;;;;;;;8.70;3.70;;;6.50;99.90;;;;;;5062915;28;20707;-51
2022/02/15 06:42:07;;;;;;;4.47;3.53;;;6.40;99.90;;;;;;5045083;28;20980;-50
2022/02/15 06:44:34;;;;;;;24.40;6.40;;;6.50;99.90;;;;;;5055345;28;20293;-49
2022/02/15 06:47:03;;;;;;;8.80;4.30;;;6.40;99.90;;;;;;5057473;28;20915;-47
2022/02/15 06:49:32;;;;;;;14.00;4.23;;;6.40;99.90;;;;;;5052905;28;20226;-45
2022/02/15 06:52:28;;;;;;;13.93;4.77;;;6.40;99.90;;;;;;5005922;28;20208;-45
2022/02/15 06:55:10;;;;;;;7.47;3.37;;;6.40;99.90;;;;;;5058822;28;20230;-43
2022/02/15 06:57:41;;;;;;;23.93;7.10;;;6.40;99.90;;;;;;5045336;28;20672;-46
2022/02/15 07:00:10;;;;;;;10.03;4.37;;;6.40;99.90;;;;;;5052788;28;20229;-44
2022/02/15 07:02:41;;;;;;;13.17;5.43;;;6.40;99.90;;;;;;5057871;28;20212;-47
2022/02/15 07:05:10;;;;;;;12.67;5.43;;;6.40;99.90;;;;;;5055247;28;20302;-41
2022/02/15 07:07:39;;;;;;;18.97;6.40;;;6.40;99.90;;;;;;5064632;28;20195;-45
2022/02/15 07:10:15;;;;;;;15.43;5.10;;;6.40;99.90;;;;;;5052456;28;21404;-49
2022/02/15 07:12:46;;;;;;;10.90;5.13;;;6.40;99.90;;;;;;5047696;28;20333;-48
2022/02/15 07:15:17;;;;;;;14.87;4.80;;;6.40;99.90;;;;;;5054681;28;20289;-48
2022/02/15 07:17:50;;;;;;;13.30;6.60;;;6.40;99.90;;;;;;5049976;28;20234;-51
2022/02/15 07:20:24;;;;;;;18.83;8.07;;;6.40;99.90;;;;;;5058975;28;20210;-48
2022/02/15 07:23:16;;;;;;;11.93;5.50;;;6.40;99.90;;;;;;5067114;28;20707;-45
2022/02/15 07:26:03;;;;;;;11.87;4.77;;;6.40;99.90;;;;;;5059058;28;20201;-44
2022/02/15 07:28:37;;;;;;;15.87;6.47;;;6.40;99.90;;;;;;5056607;28;20675;-47
2022/02/15 07:31:04;;;;;;;22.30;6.73;;;6.40;99.90;;;;;;5053739;28;20259;-45
2022/02/15 07:33:32;;;;;;;12.87;5.97;;;6.40;99.90;;;;;;5046979;28;20403;-44
2022/02/15 07:35:58;;;;;;;9.00;5.57;;;6.40;99.90;;;;;;5075183;28;20564;-46
2022/02/15 07:38:25;;;;;;;12.50;6.13;;;6.50;99.90;;;;;;5048467;28;20230;-48
2022/02/15 07:40:53;;;;;;;8.90;5.17;;;6.50;99.90;;;;;;5065293;28;20305;-45
2022/02/15 07:43:24;;;;;;;9.77;6.50;;;6.50;99.90;;;;;;5048303;28;20667;-44
2022/02/15 07:45:53;;;;;;;7.93;5.60;;;6.50;99.90;;;;;;5052545;28;20689;-45
2022/02/15 07:48:20;;;;;;;8.60;6.03;;;6.50;99.90;;;;;;5051143;28;20219;-46
2022/02/15 07:50:48;;;;;;;7.90;5.37;;;6.60;99.90;;;;;;5060944;28;20214;-44
2022/02/15 07:53:15;;;;;;;6.13;4.60;;;6.60;99.90;;;;;;5054196;28;20203;-50
2022/02/15 07:55:42;;;;;;;13.17;6.10;;;6.60;99.90;;;;;;5060945;28;20191;-44
2022/02/15 07:58:11;;;;;;;6.07;4.40;;;6.60;99.90;;;;;;5063744;28;20245;-42
2022/02/15 08:00:39;;;;;;;4.80;4.03;;;6.60;99.90;;;;;;5047131;28;20277;-46
2022/02/15 08:03:07;;;;;;;9.00;4.70;;;6.60;99.90;;;;;;5058604;28;20210;-45
2022/02/15 08:05:34;;;;;;;5.50;4.50;;;6.60;99.90;;;;;;5047071;28;20199;-46
2022/02/15 08:08:07;;;;;;;8.13;4.53;;;6.70;99.90;;;;;;5050239;28;20214;-46
2022/02/15 08:10:34;;;;;;;10.07;5.57;;;6.70;99.90;;;;;;5048359;28;20198;-46
2022/02/15 08:13:03;;;;;;;7.07;4.33;;;6.80;99.90;;;;;;5055114;28;20574;-48
2022/02/15 08:15:33;;;;;;;5.13;3.50;;;6.70;99.90;;;;;;5048265;28;20206;-44
2022/02/15 08:18:02;;;;;;;9.43;4.47;;;6.70;99.90;;;;;;5060091;28;20209;-46
2022/02/15 08:20:29;;;;;;;6.40;4.50;;;6.70;99.90;;;;;;5056062;28;20191;-45
2022/02/15 08:22:56;;;;;;;8.47;4.30;;;6.70;99.90;;;;;;5013319;28;20204;-49
2022/02/15 08:25:23;;;;;;;3.57;3.27;;;6.70;99.90;;;;;;5046806;28;20209;-49
2022/02/15 08:27:50;;;;;;;10.30;3.50;;;6.60;99.90;;;;;;5048903;28;20187;-51
2022/02/15 08:30:18;;;;;;;6.83;3.40;;;6.50;99.90;;;;;;5040230;28;20213;-46
2022/02/15 08:32:45;;;;;;;12.17;4.80;;;6.50;99.90;;;;;;5044688;28;20325;-45
2022/02/15 08:35:14;;;;;;;8.00;4.60;;;6.50;99.90;;;;;;5056127;28;20199;-50
2022/02/15 08:37:41;;;;;;;9.53;5.60;;;6.40;99.90;;;;;;5052608;28;20225;-51
2022/02/15 08:40:08;;;;;;;8.20;5.43;;;6.40;99.90;;;;;;5053659;28;20214;-49
2022/02/15 08:42:35;;;;;;;9.17;5.90;;;6.40;99.90;;;;;;5053209;28;20222;-46
2022/02/15 08:45:02;;;;;;;6.73;5.00;;;6.40;99.90;;;;;;5046682;28;20210;-50
2022/02/15 08:47:29;;;;;;;6.83;3.50;;;6.40;99.90;;;;;;5055088;28;20221;-49
2022/02/15 08:49:55;;;;;;;5.57;2.60;;;6.40;99.90;;;;;;5056559;28;20214;-46
2022/02/15 08:52:24;;;;;;;3.90;2.03;;;6.30;99.90;;;;;;5056895;28;20199;-47
2022/02/15 08:54:52;;;;;;;3.23;2.30;;;6.30;99.90;;;;;;5059313;28;20190;-47
2022/02/15 08:57:19;;;;;;;5.53;3.07;;;6.30;99.90;;;;;;5046598;28;20214;-47
2022/02/15 08:59:45;;;;;;;6.83;3.80;;;6.30;99.90;;;;;;5056705;28;20947;-44
2022/02/15 09:02:12;;;;;;;7.80;4.50;;;6.30;99.90;;;;;;5045143;28;20218;-47
2022/02/15 09:04:39;;;;;;;8.93;5.20;;;6.30;99.90;;;;;;5046826;28;20207;-51
2022/02/15 09:07:07;;;;;;;8.37;5.43;;;6.30;99.90;;;;;;5058139;28;20194;-45
2022/02/15 09:09:35;;;;;;;10.73;5.17;;;6.40;99.90;;;;;;5065541;28;20336;-46
2022/02/15 09:12:03;;;;;;;10.03;5.73;;;6.40;99.90;;;;;;5054829;28;20214;-49
2022/02/15 09:14:30;;;;;;;9.83;6.67;;;6.40;99.90;;;;;;5056842;28;20207;-50
2022/02/15 09:16:57;;;;;;;14.77;6.30;;;6.40;99.90;;;;;;5043348;28;20219;-46
2022/02/15 09:19:24;;;;;;;10.23;5.67;;;6.50;99.90;;;;;;5044245;28;20223;-47
2022/02/15 09:21:51;;;;;;;13.47;7.07;;;6.50;99.90;;;;;;5052789;28;20415;-48
2022/02/15 09:24:18;;;;;;;16.73;7.90;;;6.50;99.90;;;;;;5056189;28;20202;-45
2022/02/15 09:26:47;;;;;;;9.87;6.30;;;6.50;99.90;;;;;;5044395;28;20217;-47
2022/02/15 09:29:15;;;;;;;9.30;6.20;;;6.50;99.90;;;;;;5055034;28;20226;-46
2022/02/15 09:31:41;;;;;;;13.00;6.63;;;6.50;99.90;;;;;;5059713;28;20186;-51
2022/02/15 09:34:09;;;;;;;18.87;8.23;;;6.50;99.90;;;;;;5040575;28;20278;-52
2022/02/15 09:36:37;;;;;;;13.77;7.30;;;6.50;99.90;;;;;;5054749;28;20205;-48
2022/02/15 09:39:05;;;;;;;13.93;8.00;;;6.60;99.90;;;;;;5065598;28;20218;-46
2022/02/15 09:41:33;;;;;;;22.23;9.13;;;6.60;99.90;;;;;;5062757;28;20900;-49
2022/02/15 09:44:02;;;;;;;13.03;5.97;;;6.60;99.90;;;;;;5047383;28;21422;-47
2022/02/15 09:46:29;;;;;;;10.77;6.20;;;6.60;99.90;;;;;;5058527;28;20194;-46
2022/02/15 09:48:57;;;;;;;7.73;5.73;;;6.60;99.90;;;;;;5048777;28;20305;-48
2022/02/15 09:51:25;;;;;;;9.70;5.83;;;6.60;99.90;;;;;;5054844;28;20596;-46
2022/02/15 09:53:52;;;;;;;12.40;5.10;;;6.60;99.90;;;;;;5054641;28;20199;-47
2022/02/15 09:56:19;;;;;;;8.63;5.50;;;6.60;99.90;;;;;;5060988;28;20198;-45
2022/02/15 09:58:45;;;;;;;7.77;5.53;;;6.70;99.90;;;;;;5053609;28;20210;-44
2022/02/15 10:01:14;;;;;;;5.70;4.30;;;6.70;99.90;;;;;;5064447;28;20221;-51
2022/02/15 10:03:49;;;;;;;9.73;5.07;;;6.70;99.90;;;;;;5065756;28;20549;-49
2022/02/15 10:06:15;;;;;;;8.33;5.03;;;6.70;99.90;;;;;;5042647;28;20206;-47
2022/02/15 10:08:42;;;;;;;8.47;5.30;;;6.70;99.90;;;;;;5063900;28;20412;-47
2022/02/15 10:11:10;;;;;;;6.17;5.03;;;6.70;99.90;;;;;;5058267;28;20207;-43
2022/02/15 10:13:45;;;;;;;13.17;5.83;;;6.70;99.90;;;;;;5050348;28;20199;-44
2022/02/15 10:16:14;;;;;;;9.57;5.33;;;6.80;99.90;;;;;;5064553;28;20193;-44
2022/02/15 10:18:42;;;;;;;8.10;5.47;;;6.80;99.90;;;;;;5055769;28;20237;-47
2022/02/15 10:21:14;;;;;;;7.10;4.93;;;6.70;99.90;;;;;;5040304;28;20827;-47
2022/02/15 10:23:42;;;;;;;6.67;4.40;;;6.60;99.90;;;;;;5065103;28;20224;-48
2022/02/15 10:26:09;;;;;;;7.70;4.40;;;6.60;99.90;;;;;;5049723;28;20198;-50
2022/02/15 10:28:36;;;;;;;5.83;3.73;;;6.60;99.90;;;;;;5050181;28;20231;-49
2022/02/15 10:31:04;;;;;;;7.90;4.13;;;6.50;99.90;;;;;;5060896;28;20213;-45
2022/02/15 10:33:34;;;;;;;6.73;4.00;;;6.60;99.90;;;;;;5062786;28;20191;-46
2022/02/15 10:36:03;;;;;;;5.23;3.70;;;6.60;99.90;;;;;;5053513;28;20209;-49
2022/02/15 10:38:32;;;;;;;5.60;3.63;;;6.60;99.90;;;;;;5058875;28;20210;-45
2022/02/15 10:41:01;;;;;;;5.33;3.63;;;6.60;99.90;;;;;;5057860;28;20198;-47
2022/02/15 10:43:29;;;;;;;7.17;3.63;;;6.60;99.90;;;;;;5051480;28;21263;-46
2022/02/15 10:45:56;;;;;;;4.53;3.97;;;6.60;99.90;;;;;;5057419;28;20277;-47
2022/02/15 10:48:31;;;;;;;4.80;3.60;;;6.60;99.90;;;;;;5049342;28;20217;-46
2022/02/15 10:51:00;;;;;;;11.53;4.87;;;6.70;99.90;;;;;;5057897;28;20562;-46
2022/02/15 10:53:27;;;;;;;5.33;4.23;;;6.70;99.90;;;;;;5047495;28;20186;-46
2022/02/15 10:55:54;;;;;;;9.07;4.60;;;6.80;99.90;;;;;;5057326;28;20214;-44
2022/02/15 10:58:21;;;;;;;4.57;3.97;;;6.90;99.90;;;;;;5055225;28;20215;-44
2022/02/15 11:00:50;;;;;;;8.30;4.90;;;7.00;99.90;;;;;;5061349;28;20190;-45
2022/02/15 11:03:20;;;;;;;8.93;4.73;;;7.10;99.90;;;;;;5053950;28;20935;-44
2022/02/15 11:05:48;;;;;;;8.23;5.17;;;7.20;99.90;;;;;;5063649;28;20323;-43
2022/02/15 11:08:17;;;;;;;11.67;5.97;;;7.30;99.90;;;;;;5039508;28;20234;-47
2022/02/15 11:10:48;;;;;;;7.63;5.50;;;7.40;99.90;;;;;;5052132;28;20561;-45
2022/02/15 11:13:16;;;;;;;4.97;4.00;;;7.50;99.90;;;;;;5066140;28;20195;-47
2022/02/15 11:15:50;;;;;;;6.50;4.30;;;7.60;99.90;;;;;;5051755;28;20734;-47
2022/02/15 11:18:28;;;;;;;8.20;4.70;;;7.70;99.90;;;;;;5058267;28;20221;-45
2022/02/15 11:20:56;;;;;;;6.07;4.47;;;7.70;99.90;;;;;;5062493;28;20210;-45
2022/02/15 11:23:26;;;;;;;11.47;5.70;;;7.80;99.90;;;;;;5042560;28;20219;-45
2022/02/15 11:26:08;;;;;;;5.47;4.67;;;7.90;99.90;;;;;;5059741;28;20194;-46
2022/02/15 11:28:46;;;;;;;6.00;4.40;;;7.80;99.90;;;;;;5055267;28;20222;-45
2022/02/15 11:31:24;;;;;;;6.57;4.83;;;7.80;99.90;;;;;;5058333;28;20721;-47
2022/02/15 11:33:53;;;;;;;6.70;5.90;;;7.90;99.90;;;;;;5063825;28;20205;-47
2022/02/15 11:36:23;;;;;;;10.97;5.83;;;8.10;99.90;;;;;;5063410;28;20194;-48
2022/02/15 11:38:56;;;;;;;7.20;5.63;;;8.10;99.90;;;;;;5038429;28;20214;-47
2022/02/15 11:41:24;;;;;;;7.07;5.67;;;8.10;99.90;;;;;;5056287;28;20201;-45
2022/02/15 11:43:55;;;;;;;9.70;6.50;;;8.30;99.90;;;;;;5063673;28;20202;-44
2022/02/15 11:46:28;;;;;;;7.53;6.43;;;8.40;99.90;;;;;;5047352;28;20207;-47
2022/02/15 11:48:56;;;;;;;8.13;6.07;;;8.50;99.90;;;;;;5060751;28;20821;-48
2022/02/15 11:51:26;;;;;;;5.60;5.10;;;8.60;99.90;;;;;;5047103;28;20229;-48
2022/02/15 11:53:59;;;;;;;9.97;5.90;;;8.60;99.90;;;;;;5044802;28;20282;-48
2022/02/15 11:56:26;;;;;;;8.07;6.17;;;8.60;99.90;;;;;;5061755;28;20194;-46
2022/02/15 11:58:53;;;;;;;9.20;6.13;;;8.50;99.90;;;;;;5058768;28;20222;-48
2022/02/15 12:01:25;;;;;;;6.93;5.30;;;8.50;99.90;;;;;;5041919;28;20912;-44
2022/02/15 12:03:52;;;;;;;5.60;5.10;;;8.40;99.90;;;;;;5048973;28;20214;-50
2022/02/15 12:06:20;;;;;;;5.90;4.83;;;8.40;99.90;;;;;;5055140;28;20745;-46
2022/02/15 12:08:55;;;;;;;4.73;4.20;;;8.40;99.90;;;;;;5059632;28;20249;-45
2022/02/15 12:11:36;;;;;;;6.97;4.43;;;8.30;99.90;;;;;;5051551;28;20276;-45
2022/02/15 12:14:07;;;;;;;6.50;4.30;;;8.30;99.90;;;;;;5062707;28;20198;-49
2022/02/15 12:16:45;;;;;;;8.00;5.60;;;8.20;99.90;;;;;;5055225;28;20194;-48
2022/02/15 12:19:26;;;;;;;9.90;5.97;;;8.20;99.90;;;;;;5037133;28;20317;-50
2022/02/15 12:21:54;;;;;;;7.93;5.90;;;8.20;99.90;;;;;;5052042;28;20230;-47
2022/02/15 12:24:23;;;;;;;6.87;6.17;;;8.20;99.90;;;;;;5039740;28;20206;-47
2022/02/15 12:26:57;;;;;;;7.17;5.77;;;8.20;99.90;;;;;;5055557;28;20213;-50
2022/02/15 12:29:25;;;;;;;6.93;6.17;;;8.20;99.90;;;;;;5056333;28;20271;-47
2022/02/15 12:31:55;;;;;;;11.50;7.10;;;8.20;99.90;;;;;;5044785;28;20203;-47
2022/02/15 12:34:22;;;;;;;9.77;7.47;;;8.20;99.90;;;;;;5047231;28;20202;-46
2022/02/15 12:36:49;;;;;;;14.37;7.80;;;8.20;99.90;;;;;;5049293;28;20711;-44
2022/02/15 12:39:17;;;;;;;13.83;9.37;;;8.20;99.90;;;;;;5059795;28;20222;-45
2022/02/15 12:41:47;;;;;;;13.17;10.30;;;8.20;99.90;;;;;;5034077;28;20248;-45
2022/02/15 12:44:15;;;;;;;10.77;8.00;;;8.20;99.90;;;;;;5060563;28;20561;-44
2022/02/15 12:46:43;;;;;;;14.80;9.80;;;8.20;99.90;;;;;;5052672;28;20282;-45
2022/02/15 12:49:10;;;;;;;14.53;10.00;;;8.10;99.90;;;;;;5043855;28;20301;-43
2022/02/15 12:51:38;;;;;;;14.93;10.27;;;8.10;99.90;;;;;;5060495;28;20209;-48
2022/02/15 12:54:06;;;;;;;19.40;11.17;;;8.10;99.90;;;;;;5058597;28;21017;-49
2022/02/15 12:56:35;;;;;;;15.27;10.67;;;8.10;99.90;;;;;;5043093;28;20210;-47
2022/02/15 12:59:08;;;;;;;15.07;9.50;;;8.10;99.90;;;;;;5047021;28;21024;-50
2022/02/15 13:01:36;;;;;;;11.80;7.97;;;8.20;99.90;;;;;;5044722;28;20286;-49
2022/02/15 13:04:05;;;;;;;9.90;8.80;;;8.20;99.90;;;;;;5057759;28;20219;-47
2022/02/15 13:06:37;;;;;;;9.40;8.40;;;8.20;99.90;;;;;;5050057;28;20210;-49
2022/02/15 13:09:10;;;;;;;14.20;8.93;;;8.30;99.90;;;;;;5050024;28;20222;-51
2022/02/15 13:11:37;;;;;;;10.20;8.43;;;8.30;99.90;;;;;;5054605;28;20210;-50